• Join FlightAware (Why Join?)
  • Login
  • US Flag 
09:08PM EDT


 

Airport Tracker/Info


-or-


 

Live Flight TrackerFlight Track Log ✈ JBU917 ✈ 11-May-2013 ✈ KJFK - KORD

Flight Track Log - Related Links

Times and Time Zones

All times are in EDT time to prevent confusion due to time zone crossing. See the JBU917 flight status page for this flight to view local times or setup timezone preferences in your user account.

Time Position Orientation Groundspeed Altitude Reporting Facility
EDT Latitude Longitude Course Direction KTS MPH feet Rate Location/Type
11:50PM 40.6000 -73.8000 323° Northwest 163 188 1,700  Level New York TRACON
11:51PM 40.7959 -74.0750 304° West  Level FlightAware Approximate
11:51PM 40.5667 -73.7500 131° Southeast 240 276 3,700  Level New York TRACON
11:52PM 40.8502 -74.1836 303° West  Level FlightAware Approximate
11:52PM 40.6167 -73.6667 52° Northeast 294 338 6,300  Level New York TRACON
11:53PM 40.9069 -74.2902 306° West  Level FlightAware Approximate
11:53PM 40.6667 -73.6000 45° Northeast 315 362 8,900  Level New York TRACON
11:54PM 40.9645 -74.3960 306° West  Level FlightAware Approximate
11:54PM 40.7667 -73.5833 North 334 384 11,300  Level New York TRACON
11:55PM 41.0275 -74.4942 323° Northwest  Level FlightAware Approximate
11:55PM 40.8833 -73.6000 354° North 374 430 13,100  Level New York TRACON
11:56PM 40.9500 -73.7000 311° West 362 417 15,500 1,500 Climbing New York TRACON
11:57PM 41.0222 -73.8981 296° West 418 481 17,200 1,800 Climbing New York Center
11:58PM 41.0417 -74.0256 281° West 382 440 20,300 2,820 Climbing New York Center
11:59PM 41.0589 -74.1531 280° West 361 415 23,000 2,040 Climbing New York Center
12:00AM 41.0725 -74.2611 280° West 349 402 24,500 1,440 Climbing New York Center
12:01AM 41.0917 -74.3886 281° West 344 396 25,900 1,440 Climbing New York Center
12:02AM 41.1106 -74.5136 281° West 350 403 27,400 1,320 Climbing New York Center
12:03AM 41.1311 -74.6525 281° West 369 425 28,600 1,200 Climbing New York Center
12:04AM 41.1747 -74.7817 294° West 376 433 29,800 1,080 Climbing New York Center
12:05AM 41.2308 -74.9064 301° West 395 455 30,800 960 Climbing New York Center
12:06AM 41.2864 -75.0450 298° West 406 467 31,800 960 Climbing New York Center
12:07AM 41.3439 -75.1758 300° West 412 474 32,800 1,140 Climbing New York Center
12:08AM 41.3994 -75.3039 300° West 412 474 34,100 1,020 Climbing New York Center
12:09AM 41.4547 -75.4350 299° West 412 474 34,900 720 Climbing New York Center
12:10AM 41.4994 -75.5683 294° West 407 468 35,600 540 Climbing New York Center
12:11AM 41.5397 -75.7042 292° West 401 461 36,000 180 Climbing New York Center
12:12AM 41.5794 -75.8486 290° West 401 461 36,000  Level New York Center
12:13AM 41.6267 -76.0103 291° West 411 473 36,000  Level New York Center
12:14AM 41.6658 -76.1550 290° West 417 480 36,000  Level New York Center
12:15AM 41.7072 -76.3000 291° West 417 480 36,000  Level New York Center
12:16AM 41.7483 -76.4425 291° West 417 480 36,000  Level New York Center
12:19AM 41.8408 -76.7811 290° West 421 484 36,000  Level Cleveland Center
12:20AM 41.8831 -76.9264 291° West 421 484 36,000  Level Cleveland Center
12:21AM 41.9208 -77.0722 289° West 421 484 36,000  Level Cleveland Center
12:22AM 41.9608 -77.2208 290° West 421 484 36,000  Level Cleveland Center
12:23AM 42.0006 -77.3669 290° West 421 484 36,000  Level Cleveland Center
12:24AM 42.0400 -77.5161 290° West 416 479 36,000  Level Cleveland Center
12:25AM 42.0772 -77.6625 289° West 421 484 36,000  Level Cleveland Center
12:26AM 42.1117 -77.7925 290° West 421 484 36,000  Level Cleveland Center
12:27AM 42.1528 -77.9392 291° West 421 484 36,000  Level Cleveland Center
12:28AM 42.1914 -78.0833 290° West 421 484 36,000  Level Cleveland Center
12:29AM 42.2278 -78.2250 289° West 414 476 36,000  Level Cleveland Center
12:30AM 42.2639 -78.3667 289° West 408 470 36,000  Level Cleveland Center
12:31AM 42.3000 -78.5114 289° West 403 464 36,000  Level Cleveland Center
12:32AM 42.3358 -78.6533 289° West 403 464 36,000  Level Cleveland Center
12:33AM 42.3714 -78.7928 289° West 398 458 36,000  Level Cleveland Center
12:34AM 42.4092 -78.9494 288° West 398 458 36,000  Level Cleveland Center
12:35AM 42.4444 -79.0919 289° West 404 465 36,000  Level Cleveland Center
12:36AM 42.4792 -79.2206 290° West 404 465 36,000  Level Cleveland Center
12:37AM 42.4997 -79.3639 281° West 397 457 36,000  Level Cleveland Center
12:38AM 42.5031 -79.5103 272° West 390 449 36,000 120 Level Cleveland Center
12:39AM 42.5086 -79.6594 273° West 390 449 36,300 480 Climbing Cleveland Center
12:40AM 42.5075 -79.8058 269° West 390 449 37,000 300 Climbing Cleveland Center
12:41AM 42.5022 -79.9494 267° West 385 443 37,000  Level Cleveland Center
12:42AM 42.4947 -80.0961 266° West 385 443 37,000  Level Cleveland Center
12:43AM 42.4889 -80.2397 267° West 385 443 37,000 -300 Level Cleveland Center
12:44AM 42.4872 -80.3861 269° West 385 443 36,400 -1,200 Descending Cleveland Center
12:45AM 42.4811 -80.5381 267° West 380 437 34,700 -1,200 Descending Cleveland Center
12:46AM 42.4747 -80.6761 266° West 386 444 34,000 -360 Descending Cleveland Center
12:47AM 42.4703 -80.8225 268° West 381 438 34,000  Level Cleveland Center
12:48AM 42.4636 -80.9658 266° West 386 444 34,000  Level Cleveland Center
12:49AM 42.4589 -81.1122 268° West 386 444 34,000  Level Cleveland Center
12:50AM 42.4542 -81.2586 268° West 392 451 34,000  Level Cleveland Center
12:51AM 42.4469 -81.4047 266° West 392 451 34,000  Level Cleveland Center
12:52AM 42.4394 -81.5511 266° West 397 457 34,000  Level Cleveland Center
12:53AM 42.4339 -81.7000 267° West 397 457 34,000  Level Cleveland Center
12:54AM 42.4261 -81.8406 266° West 387 445 34,000  Level Cleveland Center
12:55AM 42.4183 -81.9867 266° West 387 445 34,000  Level Cleveland Center
12:56AM 42.4122 -82.1356 267° West 392 451 34,000  Level Cleveland Center
12:57AM 42.4039 -82.2758 265° West 392 451 34,000  Level Cleveland Center
12:58AM 42.3975 -82.4192 267° West 387 445 34,000  Level Cleveland Center
12:59AM 42.3889 -82.5681 266° West 387 445 34,000  Level Cleveland Center
01:00AM 42.3819 -82.7167 266° West 392 451 34,000  Level Cleveland Center
01:01AM 42.3731 -82.8625 265° West 392 451 34,000  Level Cleveland Center
01:02AM 42.3658 -83.0083 266° West 392 451 34,000  Level Cleveland Center
01:03AM 42.3564 -83.1569 265° West 398 458 34,000  Level Cleveland Center
01:04AM 42.3467 -83.3056 265° West 398 458 34,000  Level Cleveland Center
01:05AM 42.3389 -83.4542 266° West 398 458 34,000  Level Cleveland Center
01:06AM 42.3317 -83.5717 265° West 405 466 34,000  Level Cleveland Center
01:07AM 42.3211 -83.7342 265° West 405 466 34,000  Level Cleveland Center
01:08AM 42.3106 -83.8853 265° West 405 466 34,000  Level Cleveland Center
01:09AM 42.3022 -84.0336 266° West 405 466 34,000  Level Cleveland Center
01:11AM 42.2781 -84.4078 265° West 409 471 34,000  Level Chicago Center
01:12AM 42.2678 -84.5583 265° West 407 468 34,000  Level Chicago Center
01:13AM 42.2572 -84.7100 265° West 406 467 34,000  Level Chicago Center
01:14AM 42.2467 -84.8592 265° West 401 461 34,000  Level Chicago Center
01:15AM 42.2292 -85.0078 261° West 401 461 34,000  Level Chicago Center
01:16AM 42.2106 -85.1575 261° West 404 465 34,000 -120 Level Chicago Center
01:17AM 42.1917 -85.3050 260° West 401 461 33,800 -540 Descending Chicago Center
01:18AM 42.1725 -85.4556 260° West 404 465 33,000 -1,140 Descending Chicago Center
01:19AM 42.1539 -85.6028 260° West 401 461 31,600 -1,680 Descending Chicago Center
01:20AM 42.1344 -85.7456 260° West 390 449 29,700 -1,920 Descending Chicago Center
01:21AM 42.1169 -85.8828 260° West 377 434 27,800 -1,920 Descending Chicago Center
01:22AM 42.0972 -86.0244 259° West 359 413 25,900 -1,800 Descending Chicago Center
01:23AM 42.0800 -86.1503 260° West 345 397 24,200 -1,680 Descending Chicago Center
01:24AM 42.0644 -86.2725 260° West 335 386 22,600 -1,620 Descending Chicago Center
01:25AM 42.0478 -86.3908 259° West 327 376 21,000 -1,620 Descending Chicago Center
01:26AM 42.0306 -86.5053 259° West 315 362 19,400 -1,560 Descending Chicago Center
01:27AM 42.0175 -86.6189 261° West 311 358 17,900 -1,440 Descending Chicago Center
01:28AM 42.0011 -86.7297 259° West 314 361 16,600 -960 Descending Chicago Center
01:29AM 41.9853 -86.8469 260° West 320 368 16,000 -300 Descending Chicago Center
01:30AM 41.9681 -86.9703 259° West 333 383 16,000 -660 Level Chicago Center
01:31AM 41.9317 -87.0833 247° West 339 390 14,700 -1,740 Descending Chicago Center
01:32AM 41.8875 -87.1900 241° Southwest 326 375 12,600 -1,800 Descending Chicago Center
01:33AM 41.8486 -87.2850 241° Southwest 290 334 11,100 -1,860 Descending Chicago Center
01:34AM 41.8194 -87.3739 246° West 263 303 8,900 -2,280 Descending Chicago Center
01:35AM 41.8164 -87.4639 267° West 246 283 6,600 -2,340 Descending Chicago Center
01:36AM 41.8397 -87.5522 290° West 252 290 4,300 -1,800 Descending Chicago Center
01:37AM 41.8608 -87.6333 289° West 245 282 3,100 -1,200 Descending Chicago Center
01:38AM 41.8667 -87.6667 283° West 199 229 2,700 -480 Descending Chicago TRACON
01:39AM 41.8833 -87.7167 294° West 158 182 2,500 -120 Descending Chicago TRACON
01:40AM 41.9000 -87.7833 289° West 159 183 2,500 -180 Level Chicago TRACON
01:41AM 41.9167 -87.8333 294° West 152 175 2,200 -540 Descending Chicago TRACON
01:42AM 41.9500 -87.8500 340° North 119 137 1,500 -420 Descending Chicago TRACON
01:43AM 41.9864 -87.8972 316° Northwest 131 151 1,100 -300 Descending Chicago Center